Time;durP1;ratioP1;P1;durP2;ratioP2;P2;SDS_P1;SDS_P2;PMS_P1;PMS_P2;Temp;Humidity;BMP_temperature;BMP_pressure;BME280_temperature;BME280_humidity;BME280_pressure;Samples;Min_cycle;Max_cycle;Signal;HPM_P1;HPM_P2
2023/05/17 00:01:28;;;;;;;2.40;1.20;;;;;;;;;;5034728;28;20206;-88
2023/05/17 00:03:55;;;;;;;3.47;1.27;;;;;;;;;;5036266;28;20168;-88
2023/05/17 00:06:21;;;;;;;2.70;1.30;;;;;;;;;;5034563;28;20204;-89
2023/05/17 00:08:47;;;;;;;1.50;1.17;;;;;;;;;;5033848;28;20189;-87
2023/05/17 00:11:13;;;;;;;3.10;1.30;;;;;;;;;;5033993;28;20192;-88
2023/05/17 00:13:40;;;;;;;1.10;1.00;;;;;;;;;;5036083;28;20192;-88
2023/05/17 00:16:06;;;;;;;2.20;1.17;;;;;;;;;;5018383;28;20199;-89
2023/05/17 00:18:32;;;;;;;1.77;1.13;;;;;;;;;;5017963;28;20206;-88
2023/05/17 00:20:58;;;;;;;3.50;1.17;;;;;;;;;;5017255;28;20207;-88
2023/05/17 00:23:24;;;;;;;1.33;1.20;;;;;;;;;;5017979;28;20187;-88
2023/05/17 00:25:50;;;;;;;3.07;1.37;;;;;;;;;;5017590;28;20181;-87
2023/05/17 00:28:16;;;;;;;2.90;1.20;;;;;;;;;;5017856;28;20178;-88
2023/05/17 00:30:42;;;;;;;2.13;1.40;;;;;;;;;;5017332;28;20222;-88
2023/05/17 00:33:08;;;;;;;4.00;1.50;;;;;;;;;;5017742;28;20188;-88
2023/05/17 00:35:34;;;;;;;1.50;1.20;;;;;;;;;;5035325;28;20183;-88
2023/05/17 00:38:00;;;;;;;2.50;1.40;;;;;;;;;;5035404;28;20590;-88
2023/05/17 00:40:26;;;;;;;1.50;1.20;;;;;;;;;;5034769;28;20639;-89
2023/05/17 00:42:52;;;;;;;3.00;1.10;;;;;;;;;;5017370;28;20637;-89
2023/05/17 00:45:19;;;;;;;1.97;1.10;;;;;;;;;;5017288;28;20180;-88
2023/05/17 00:47:45;;;;;;;4.20;1.37;;;;;;;;;;5035169;28;20200;-87
2023/05/17 00:50:11;;;;;;;2.60;1.20;;;;;;;;;;5034491;28;20661;-86
2023/05/17 00:52:37;;;;;;;2.43;1.40;;;;;;;;;;5017441;28;20182;-87
2023/05/17 00:55:03;;;;;;;4.27;1.40;;;;;;;;;;5034350;28;20648;-88
2023/05/17 00:57:31;;;;;;;2.60;1.30;;;;;;;;;;5017002;28;20224;-87
2023/05/17 00:59:57;;;;;;;3.00;1.20;;;;;;;;;;5016617;28;20226;-88
2023/05/17 01:02:24;;;;;;;2.20;1.23;;;;;;;;;;5017091;28;20181;-87
2023/05/17 01:04:50;;;;;;;1.30;1.10;;;;;;;;;;5017089;28;20257;-88
2023/05/17 01:07:16;;;;;;;2.20;1.30;;;;;;;;;;5016047;28;20256;-88
2023/05/17 01:09:43;;;;;;;1.40;1.20;;;;;;;;;;5034118;28;20182;-88
2023/05/17 01:12:36;;;;;;;1.53;1.27;;;;;;;;;;5016894;28;20204;-88
2023/05/17 01:15:08;;;;;;;1.77;1.30;;;;;;;;;;5017133;28;20195;-88
2023/05/17 01:17:43;;;;;;;1.90;1.43;;;;;;;;;;5016939;28;20221;-87
2023/05/17 01:20:12;;;;;;;1.63;1.20;;;;;;;;;;5016752;28;20240;-88
2023/05/17 01:22:39;;;;;;;3.53;1.33;;;;;;;;;;5016873;28;20208;-88
2023/05/17 01:25:23;;;;;;;5.93;1.60;;;;;;;;;;5034833;28;20176;-88
2023/05/17 01:27:50;;;;;;;3.23;1.33;;;;;;;;;;5016775;28;20195;-88
2023/05/17 01:30:18;;;;;;;3.43;1.40;;;;;;;;;;5016450;28;20186;-88
2023/05/17 01:32:45;;;;;;;2.00;1.20;;;;;;;;;;5016933;28;20213;-89
2023/05/17 01:35:11;;;;;;;3.20;1.40;;;;;;;;;;5016510;28;20178;-88
2023/05/17 01:37:38;;;;;;;4.17;1.40;;;;;;;;;;5016753;28;20197;-88
2023/05/17 01:40:04;;;;;;;2.60;1.67;;;;;;;;;;5033963;28;20201;-88
2023/05/17 01:42:31;;;;;;;3.00;1.30;;;;;;;;;;5016374;28;20182;-88
2023/05/17 01:45:00;;;;;;;3.33;1.30;;;;;;;;;;5034505;28;20184;-88
2023/05/17 01:47:29;;;;;;;2.47;1.30;;;;;;;;;;5034089;28;20198;-88
2023/05/17 01:49:58;;;;;;;3.53;1.50;;;;;;;;;;5016138;28;20185;-88
2023/05/17 01:52:30;;;;;;;2.03;1.30;;;;;;;;;;5016975;28;20196;-88
2023/05/17 01:55:19;;;;;;;2.27;1.30;;;;;;;;;;5034717;28;20161;-88
2023/05/17 01:57:48;;;;;;;1.57;1.30;;;;;;;;;;5006597;28;20248;-88
2023/05/17 02:00:15;;;;;;;2.73;1.20;;;;;;;;;;5015751;28;20202;-88
2023/05/17 02:02:41;;;;;;;2.70;1.40;;;;;;;;;;5016823;28;20216;-88
2023/05/17 02:05:07;;;;;;;2.70;1.13;;;;;;;;;;5034378;28;20185;-88
2023/05/17 02:07:33;;;;;;;4.30;1.33;;;;;;;;;;5032498;28;20225;-87
2023/05/17 02:09:59;;;;;;;3.53;1.50;;;;;;;;;;5015918;28;20217;-89
2023/05/17 02:12:25;;;;;;;3.47;1.50;;;;;;;;;;5016609;28;20281;-88
2023/05/17 02:14:51;;;;;;;5.00;1.70;;;;;;;;;;5016783;28;20184;-88
2023/05/17 02:17:17;;;;;;;3.33;1.90;;;;;;;;;;5034198;28;20202;-88
2023/05/17 02:19:43;;;;;;;2.30;1.40;;;;;;;;;;5015840;28;20204;-88
2023/05/17 02:22:09;;;;;;;3.63;1.70;;;;;;;;;;5033904;28;20707;-88
2023/05/17 02:24:35;;;;;;;2.03;1.53;;;;;;;;;;5034242;28;20188;-88
2023/05/17 02:27:02;;;;;;;3.67;1.50;;;;;;;;;;5016054;28;20196;-88
2023/05/17 02:29:28;;;;;;;4.03;1.40;;;;;;;;;;5015818;28;20656;-88
2023/05/17 02:31:54;;;;;;;2.30;1.20;;;;;;;;;;5033261;28;20213;-88
2023/05/17 02:34:20;;;;;;;2.20;1.60;;;;;;;;;;5016127;28;20221;-88
2023/05/17 02:36:47;;;;;;;3.90;1.70;;;;;;;;;;5015982;28;20202;-88
2023/05/17 02:39:13;;;;;;;2.53;1.33;;;;;;;;;;5033662;28;20206;-88
2023/05/17 02:41:39;;;;;;;1.93;1.50;;;;;;;;;;5033274;28;20193;-88
2023/05/17 02:44:05;;;;;;;3.50;1.50;;;;;;;;;;5033957;28;20200;-87
2023/05/17 02:46:31;;;;;;;2.77;1.30;;;;;;;;;;5016256;28;20221;-88
2023/05/17 02:48:57;;;;;;;4.10;1.40;;;;;;;;;;5033687;28;20668;-88
2023/05/17 02:51:23;;;;;;;2.57;1.30;;;;;;;;;;5015402;28;20175;-88
2023/05/17 02:53:49;;;;;;;2.47;1.57;;;;;;;;;;5016069;28;20232;-88
2023/05/17 02:56:15;;;;;;;2.87;1.60;;;;;;;;;;5033261;28;20217;-88
2023/05/17 02:58:41;;;;;;;2.07;1.40;;;;;;;;;;5015384;28;20186;-88
2023/05/17 03:01:08;;;;;;;5.30;1.40;;;;;;;;;;5032569;28;20170;-88
2023/05/17 03:03:34;;;;;;;2.40;1.30;;;;;;;;;;5015092;28;20177;-87
2023/05/17 03:06:01;;;;;;;1.97;1.37;;;;;;;;;;5015136;28;20200;-88
2023/05/17 03:08:27;;;;;;;2.27;1.67;;;;;;;;;;5032037;28;20208;-88
2023/05/17 03:10:53;;;;;;;2.60;1.63;;;;;;;;;;5014730;28;20189;-88
2023/05/17 03:13:19;;;;;;;2.90;1.60;;;;;;;;;;5015132;28;20217;-88
2023/05/17 03:15:45;;;;;;;3.00;1.80;;;;;;;;;;5015136;28;20181;-88
2023/05/17 03:18:11;;;;;;;2.97;1.53;;;;;;;;;;5016413;28;20182;-88
2023/05/17 03:20:37;;;;;;;3.33;1.60;;;;;;;;;;5036235;28;20185;-88
2023/05/17 03:23:03;;;;;;;3.63;1.90;;;;;;;;;;5019160;28;20175;-88
2023/05/17 03:25:29;;;;;;;2.17;1.50;;;;;;;;;;5018870;28;20182;-88
2023/05/17 03:27:55;;;;;;;2.80;1.77;;;;;;;;;;5018949;28;20753;-88
2023/05/17 03:30:21;;;;;;;2.67;1.80;;;;;;;;;;5018753;28;20269;-88
2023/05/17 03:32:47;;;;;;;5.03;1.90;;;;;;;;;;5036756;28;20224;-87
2023/05/17 03:35:13;;;;;;;2.93;1.90;;;;;;;;;;5018908;28;20267;-88
2023/05/17 03:37:39;;;;;;;3.20;1.80;;;;;;;;;;5018687;28;20205;-88
2023/05/17 03:40:05;;;;;;;3.03;1.70;;;;;;;;;;5018109;28;20209;-88
2023/05/17 03:42:31;;;;;;;2.87;1.63;;;;;;;;;;5036696;28;20184;-88
2023/05/17 03:44:57;;;;;;;5.13;1.97;;;;;;;;;;5036405;28;20174;-88
2023/05/17 03:47:24;;;;;;;2.90;1.70;;;;;;;;;;5018845;28;20248;-88
2023/05/17 03:49:50;;;;;;;2.70;1.83;;;;;;;;;;5036214;28;20182;-88
2023/05/17 03:52:16;;;;;;;3.57;1.80;;;;;;;;;;5024206;28;20193;-88
2023/05/17 03:54:42;;;;;;;3.80;1.90;;;;;;;;;;5035255;28;20212;-87
2023/05/17 03:57:08;;;;;;;4.10;1.80;;;;;;;;;;5036716;28;20217;-88
2023/05/17 03:59:34;;;;;;;4.43;1.67;;;;;;;;;;5035188;28;20200;-88
2023/05/17 04:02:00;;;;;;;3.43;1.83;;;;;;;;;;5035332;28;20177;-88
2023/05/17 04:04:26;;;;;;;2.13;1.77;;;;;;;;;;5036852;28;20182;-88
2023/05/17 04:06:52;;;;;;;4.27;1.80;;;;;;;;;;5034309;28;20197;-88
2023/05/17 04:09:18;;;;;;;4.47;1.93;;;;;;;;;;5035408;28;20185;-88
2023/05/17 04:11:44;;;;;;;3.23;1.80;;;;;;;;;;5036310;28;20190;-88
2023/05/17 04:14:10;;;;;;;5.23;1.90;;;;;;;;;;5035234;28;20205;-87
2023/05/17 04:16:36;;;;;;;2.30;1.83;;;;;;;;;;5034835;28;20209;-88
2023/05/17 04:19:02;;;;;;;3.37;1.90;;;;;;;;;;5036175;28;20201;-88
2023/05/17 04:21:28;;;;;;;2.63;1.87;;;;;;;;;;5035803;28;20182;-88
2023/05/17 04:23:54;;;;;;;2.30;1.63;;;;;;;;;;5036273;28;20185;-88
2023/05/17 04:26:21;;;;;;;3.87;1.97;;;;;;;;;;5034592;28;20194;-86
2023/05/17 04:28:47;;;;;;;3.90;2.00;;;;;;;;;;5034079;28;20655;-88
2023/05/17 04:31:15;;;;;;;4.83;2.00;;;;;;;;;;5035001;28;20197;-88
2023/05/17 04:33:41;;;;;;;3.27;1.90;;;;;;;;;;5036062;28;20186;-87
2023/05/17 04:36:07;;;;;;;2.73;1.87;;;;;;;;;;5034769;28;20213;-88
2023/05/17 04:38:33;;;;;;;3.67;1.80;;;;;;;;;;5034584;28;20202;-88
2023/05/17 04:41:08;;;;;;;4.77;2.00;;;;;;;;;;5033917;28;20182;-88
2023/05/17 04:43:34;;;;;;;2.30;1.90;;;;;;;;;;5034467;28;20549;-88
2023/05/17 04:46:00;;;;;;;3.40;1.80;;;;;;;;;;5034181;28;20205;-88
2023/05/17 04:48:26;;;;;;;5.20;1.90;;;;;;;;;;5034591;28;20186;-88
2023/05/17 04:50:53;;;;;;;6.33;2.17;;;;;;;;;;5033921;28;20189;-87
2023/05/17 04:53:19;;;;;;;3.47;1.70;;;;;;;;;;5033778;28;20175;-89
2023/05/17 04:55:47;;;;;;;3.07;1.87;;;;;;;;;;5033808;28;20196;-85
2023/05/17 04:58:13;;;;;;;3.93;1.87;;;;;;;;;;5034802;28;20206;-88
2023/05/17 05:00:39;;;;;;;3.10;1.90;;;;;;;;;;5034652;28;20175;-88
2023/05/17 05:03:06;;;;;;;5.97;2.20;;;;;;;;;;5033780;28;20182;-88
2023/05/17 05:05:32;;;;;;;6.00;2.10;;;;;;;;;;5035107;28;20182;-88
2023/05/17 05:07:58;;;;;;;4.17;2.20;;;;;;;;;;5032194;28;20191;-88
2023/05/17 05:10:25;;;;;;;3.83;2.03;;;;;;;;;;5035015;28;20182;-80
2023/05/17 05:12:51;;;;;;;3.83;2.00;;;;;;;;;;5036208;28;20674;-80
2023/05/17 05:15:17;;;;;;;5.97;2.30;;;;;;;;;;5036078;28;20188;-80
2023/05/17 05:17:43;;;;;;;3.53;2.00;;;;;;;;;;5037137;28;20202;-80
2023/05/17 05:20:09;;;;;;;3.47;2.00;;;;;;;;;;5035816;28;20205;-80
2023/05/17 05:22:35;;;;;;;4.20;2.20;;;;;;;;;;5030597;28;20193;-80
2023/05/17 05:25:01;;;;;;;6.37;2.50;;;;;;;;;;5036780;28;20171;-80
2023/05/17 05:27:27;;;;;;;3.63;2.30;;;;;;;;;;5019667;28;20200;-79
2023/05/17 05:29:54;;;;;;;2.20;2.00;;;;;;;;;;5020810;28;20193;-82
2023/05/17 05:32:21;;;;;;;3.30;2.10;;;;;;;;;;5019869;28;20635;-79
2023/05/17 05:34:47;;;;;;;4.07;2.40;;;;;;;;;;5020409;28;20643;-83
2023/05/17 05:37:13;;;;;;;3.37;1.90;;;;;;;;;;5036674;28;20208;-84
2023/05/17 05:39:39;;;;;;;4.80;2.13;;;;;;;;;;5037076;28;20202;-84
2023/05/17 05:42:06;;;;;;;3.50;2.30;;;;;;;;;;5017025;28;20264;-85
2023/05/17 05:44:32;;;;;;;5.13;2.50;;;;;;;;;;5016633;28;20177;-85
2023/05/17 05:46:58;;;;;;;6.17;2.80;;;;;;;;;;5017169;28;20194;-82
2023/05/17 05:49:24;;;;;;;6.17;2.80;;;;;;;;;;5019790;28;20242;-83
2023/05/17 05:51:53;;;;;;;4.60;2.50;;;;;;;;;;5018671;28;20174;-82
2023/05/17 05:54:19;;;;;;;4.80;3.47;;;;;;;;;;5036958;28;20182;-83
2023/05/17 05:56:45;;;;;;;5.90;2.73;;;;;;;;;;5045554;23;20270;-80
2023/05/17 05:59:11;;;;;;;5.93;3.00;;;;;;;;;;5035541;28;20294;-79
2023/05/17 06:01:37;;;;;;;7.13;3.10;;;;;;;;;;5043144;28;20169;-80
2023/05/17 06:04:03;;;;;;;5.53;4.80;;;;;;;;;;5036019;28;20205;-80
2023/05/17 06:06:30;;;;;;;6.33;3.47;;;;;;;;;;5053447;28;20189;-80
2023/05/17 06:08:56;;;;;;;7.63;3.20;;;;;;;;;;5043722;28;20177;-79
2023/05/17 06:11:22;;;;;;;5.53;2.80;;;;;;;;;;5052831;28;20656;-80
2023/05/17 06:13:49;;;;;;;5.10;2.80;;;;;;;;;;5035874;28;20564;-79
2023/05/17 06:16:15;;;;;;;5.00;2.60;;;;;;;;;;5054076;28;20192;-79
2023/05/17 06:18:41;;;;;;;5.70;2.90;;;;;;;;;;5054152;28;20211;-80
2023/05/17 06:21:07;;;;;;;6.03;2.90;;;;;;;;;;5053230;28;20180;-80
2023/05/17 06:23:33;;;;;;;6.87;2.90;;;;;;;;;;5052408;28;20189;-78
2023/05/17 06:25:59;;;;;;;5.97;3.10;;;;;;;;;;5035620;28;20264;-80
2023/05/17 06:28:25;;;;;;;5.80;2.90;;;;;;;;;;5053000;28;20203;-80
2023/05/17 06:30:51;;;;;;;7.80;3.47;;;;;;;;;;5034685;28;20267;-80
2023/05/17 06:33:17;;;;;;;5.83;3.07;;;;;;;;;;5053051;28;20208;-80
2023/05/17 06:35:44;;;;;;;6.93;3.20;;;;;;;;;;5053129;28;20178;-80
2023/05/17 06:38:10;;;;;;;7.97;3.57;;;;;;;;;;5052884;28;20200;-80
2023/05/17 06:40:36;;;;;;;6.57;3.13;;;;;;;;;;5052457;28;20226;-80
2023/05/17 06:43:02;;;;;;;5.93;3.40;;;;;;;;;;5053008;28;20185;-80
2023/05/17 06:45:28;;;;;;;6.43;2.90;;;;;;;;;;5035237;28;20180;-80
2023/05/17 06:47:54;;;;;;;8.27;3.53;;;;;;;;;;5035169;28;20194;-81
2023/05/17 06:50:20;;;;;;;9.57;3.90;;;;;;;;;;5034277;28;20529;-80
2023/05/17 06:52:46;;;;;;;5.10;2.97;;;;;;;;;;5034419;28;20644;-80
2023/05/17 06:55:12;;;;;;;7.37;3.60;;;;;;;;;;5034721;28;20188;-79
2023/05/17 06:57:38;;;;;;;6.00;3.40;;;;;;;;;;5052712;28;20221;-79
2023/05/17 07:00:09;;;;;;;10.63;3.87;;;;;;;;;;5034110;28;20194;-79
2023/05/17 07:02:35;;;;;;;6.57;3.43;;;;;;;;;;5034888;28;20188;-80
2023/05/17 07:05:01;;;;;;;9.43;3.30;;;;;;;;;;5052444;28;20185;-81
2023/05/17 07:07:27;;;;;;;8.37;3.03;;;;;;;;;;5052488;28;20193;-84
2023/05/17 07:09:53;;;;;;;7.20;3.40;;;;;;;;;;5034293;28;20202;-81
2023/05/17 07:12:19;;;;;;;5.70;3.27;;;;;;;;;;5052550;28;20192;-82
2023/05/17 07:14:45;;;;;;;5.90;3.20;;;;;;;;;;5033955;28;20204;-81
2023/05/17 07:17:11;;;;;;;6.70;3.30;;;;;;;;;;5034313;28;20201;-81
2023/05/17 07:19:37;;;;;;;6.47;3.30;;;;;;;;;;5051545;28;20684;-80
2023/05/17 07:22:04;;;;;;;8.87;3.37;;;;;;;;;;5051477;28;20189;-82
2023/05/17 07:24:30;;;;;;;5.33;2.93;;;;;;;;;;5030920;28;20189;-81
2023/05/17 07:26:56;;;;;;;7.33;3.07;;;;;;;;;;5032431;28;20190;-81
2023/05/17 07:29:22;;;;;;;7.30;3.10;;;;;;;;;;5014434;28;20275;-81
2023/05/17 07:31:48;;;;;;;7.73;3.40;;;;;;;;;;5016799;28;20284;-81
2023/05/17 07:34:14;;;;;;;6.73;3.17;;;;;;;;;;5031613;28;20192;-78
2023/05/17 07:36:40;;;;;;;7.20;3.40;;;;;;;;;;5052341;28;20691;-82
2023/05/17 07:39:08;;;;;;;6.67;3.40;;;;;;;;;;5052171;28;20626;-81
2023/05/17 07:41:34;;;;;;;6.23;3.40;;;;;;;;;;5051770;28;20170;-81
2023/05/17 07:44:00;;;;;;;8.80;3.33;;;;;;;;;;5052232;28;20183;-81
2023/05/17 07:46:29;;;;;;;6.50;3.33;;;;;;;;;;5052061;28;20186;-81
2023/05/17 07:48:55;;;;;;;8.07;3.33;;;;;;;;;;5052102;28;20166;-81
2023/05/17 07:51:21;;;;;;;7.03;3.13;;;;;;;;;;5033675;28;20206;-81
2023/05/17 07:53:47;;;;;;;6.47;3.40;;;;;;;;;;5033974;28;20643;-82
2023/05/17 07:56:13;;;;;;;7.67;3.70;;;;;;;;;;5052035;28;20225;-81
2023/05/17 07:58:40;;;;;;;6.57;3.10;;;;;;;;;;5051461;28;20684;-82
2023/05/17 08:01:06;;;;;;;5.90;3.13;;;;;;;;;;5033983;28;20216;-82
2023/05/17 08:03:32;;;;;;;13.70;5.00;;;;;;;;;;5051813;28;20645;-82
2023/05/17 08:05:58;;;;;;;16.70;5.50;;;;;;;;;;5054631;28;20267;-81
2023/05/17 08:08:24;;;;;;;11.07;4.97;;;;;;;;;;5055140;28;20196;-82
2023/05/17 08:10:50;;;;;;;9.17;4.30;;;;;;;;;;5055096;28;20170;-82
2023/05/17 08:13:16;;;;;;;11.20;5.43;;;;;;;;;;5055450;28;20173;-82
2023/05/17 08:15:42;;;;;;;7.20;3.63;;;;;;;;;;5037496;28;20170;-82
2023/05/17 08:18:08;;;;;;;5.40;2.60;;;;;;;;;;5055219;28;20204;-83
2023/05/17 08:20:34;;;;;;;3.20;2.60;;;;;;;;;;5053631;28;20232;-82
2023/05/17 08:23:00;;;;;;;5.60;2.80;;;;;;;;;;5036200;28;20628;-82
2023/05/17 08:25:26;;;;;;;4.47;2.60;;;;;;;;;;5054147;28;20192;-81
2023/05/17 08:27:52;;;;;;;5.33;2.70;;;;;;;;;;5053937;28;20221;-82
2023/05/17 08:30:19;;;;;;;6.67;2.87;;;;;;;;;;5053287;28;20260;-82
2023/05/17 08:32:45;;;;;;;4.37;2.33;;;;;;;;;;5048012;28;20221;-80
2023/05/17 08:35:12;;;;;;;6.07;2.63;;;;;;;;;;5035564;28;20236;-80
2023/05/17 08:37:38;;;;;;;5.83;2.50;;;;;;;;;;5039815;28;20214;-81
2023/05/17 08:40:04;;;;;;;5.83;2.27;;;;;;;;;;5049970;28;20205;-81
2023/05/17 08:42:30;;;;;;;6.57;2.57;;;;;;;;;;5051487;28;20579;-81
2023/05/17 08:44:56;;;;;;;4.37;2.50;;;;;;;;;;5050519;28;20188;-81
2023/05/17 08:47:28;;;;;;;4.90;2.53;;;;;;;;;;5050729;28;20201;-81
2023/05/17 08:49:59;;;;;;;6.57;2.47;;;;;;;;;;5051074;28;20209;-80
2023/05/17 08:52:28;;;;;;;6.57;2.37;;;;;;;;;;5050651;28;20633;-81
2023/05/17 08:54:54;;;;;;;5.83;2.50;;;;;;;;;;5051044;28;20186;-80
2023/05/17 08:57:23;;;;;;;4.57;2.03;;;;;;;;;;5052449;28;20214;-80
2023/05/17 08:59:49;;;;;;;5.83;2.20;;;;;;;;;;5054746;28;20201;-81
2023/05/17 09:02:15;;;;;;;5.13;2.30;;;;;;;;;;5036921;28;20170;-81
2023/05/17 09:04:42;;;;;;;6.87;2.33;;;;;;;;;;5054373;28;20170;-81
2023/05/17 09:07:08;;;;;;;7.07;2.40;;;;;;;;;;5036687;28;20202;-81
2023/05/17 09:09:34;;;;;;;4.90;2.20;;;;;;;;;;5036863;28;20192;-80
2023/05/17 09:12:03;;;;;;;4.73;2.07;;;;;;;;;;5054559;28;20178;-81
2023/05/17 09:14:33;;;;;;;5.40;2.40;;;;;;;;;;5036822;28;20197;-81
2023/05/17 09:17:00;;;;;;;3.07;2.13;;;;;;;;;;5054448;28;20278;-81
2023/05/17 09:19:26;;;;;;;4.83;2.47;;;;;;;;;;5036536;28;20208;-81
2023/05/17 09:21:56;;;;;;;5.80;2.50;;;;;;;;;;5054287;28;20177;-81
2023/05/17 09:24:29;;;;;;;6.63;2.70;;;;;;;;;;5054476;28;20264;-81
2023/05/17 09:27:01;;;;;;;4.53;1.97;;;;;;;;;;5054038;28;20242;-81
2023/05/17 09:29:29;;;;;;;4.03;2.40;;;;;;;;;;5036357;28;20247;-81
2023/05/17 09:31:55;;;;;;;6.97;2.20;;;;;;;;;;5036150;28;20185;-80
2023/05/17 09:34:24;;;;;;;4.23;2.23;;;;;;;;;;5053598;28;20174;-82
2023/05/17 09:36:50;;;;;;;7.70;2.40;;;;;;;;;;5054127;28;20263;-83
2023/05/17 09:39:16;;;;;;;2.80;1.90;;;;;;;;;;5035069;28;20687;-80
2023/05/17 09:41:43;;;;;;;4.83;2.30;;;;;;;;;;5045051;28;20178;-80
2023/05/17 09:44:10;;;;;;;4.23;2.00;;;;;;;;;;5047449;28;20639;-77
2023/05/17 09:46:38;;;;;;;4.10;1.93;;;;;;;;;;5052743;28;20570;-80
2023/05/17 09:49:05;;;;;;;5.03;2.30;;;;;;;;;;5052930;28;20181;-80
2023/05/17 09:51:50;;;;;;;4.50;2.17;;;;;;;;;;5052638;28;20177;-80
2023/05/17 09:54:17;;;;;;;5.70;2.10;;;;;;;;;;5052933;28;20621;-80
2023/05/17 09:56:43;;;;;;;6.47;2.20;;;;;;;;;;5053768;28;20205;-81
2023/05/17 09:59:16;;;;;;;4.00;2.10;;;;;;;;;;5053745;28;20197;-80
2023/05/17 10:01:43;;;;;;;4.43;2.03;;;;;;;;;;5044136;28;20627;-82
2023/05/17 10:04:10;;;;;;;4.77;2.30;;;;;;;;;;5053310;28;20174;-82
2023/05/17 10:06:38;;;;;;;6.73;2.40;;;;;;;;;;5053304;28;20236;-81
2023/05/17 10:09:05;;;;;;;5.60;2.20;;;;;;;;;;5031793;28;20284;-83
2023/05/17 10:11:33;;;;;;;5.70;2.37;;;;;;;;;;5048046;28;20193;-82
2023/05/17 10:14:08;;;;;;;5.23;2.20;;;;;;;;;;5052863;28;20182;-82
2023/05/17 10:16:34;;;;;;;4.40;2.10;;;;;;;;;;5035362;28;20170;-82
2023/05/17 10:19:02;;;;;;;6.80;2.10;;;;;;;;;;5038803;28;20202;-82
2023/05/17 10:21:30;;;;;;;3.83;1.90;;;;;;;;;;5034683;28;20201;-82
2023/05/17 10:23:56;;;;;;;3.80;1.93;;;;;;;;;;5034558;28;20175;-82
2023/05/17 10:26:22;;;;;;;3.27;1.83;;;;;;;;;;5033193;28;20232;-82
2023/05/17 10:28:50;;;;;;;5.80;2.13;;;;;;;;;;5050955;28;20209;-82
2023/05/17 10:31:17;;;;;;;3.67;1.97;;;;;;;;;;5051583;28;20261;-83
2023/05/17 10:33:44;;;;;;;4.87;2.20;;;;;;;;;;5033180;28;20710;-82
2023/05/17 10:36:13;;;;;;;4.77;1.87;;;;;;;;;;5034115;28;20640;-83
2023/05/17 10:38:39;;;;;;;3.90;1.90;;;;;;;;;;5034257;28;20248;-83
2023/05/17 10:41:05;;;;;;;3.43;1.90;;;;;;;;;;5033739;28;20625;-82
2023/05/17 10:43:32;;;;;;;3.80;1.87;;;;;;;;;;5052870;28;20632;-82
2023/05/17 10:45:59;;;;;;;3.80;2.00;;;;;;;;;;5052647;28;20612;-82
2023/05/17 10:48:29;;;;;;;5.83;1.80;;;;;;;;;;5034864;28;20223;-83
2023/05/17 10:50:55;;;;;;;5.97;1.70;;;;;;;;;;5031696;28;20174;-83
2023/05/17 10:53:21;;;;;;;4.43;1.90;;;;;;;;;;5051534;28;20173;-83
2023/05/17 10:55:48;;;;;;;4.93;2.00;;;;;;;;;;5034231;28;20177;-82
2023/05/17 10:58:18;;;;;;;5.10;2.00;;;;;;;;;;5034307;28;20271;-83
2023/05/17 11:00:45;;;;;;;4.87;1.97;;;;;;;;;;5033504;28;20177;-83
2023/05/17 11:03:13;;;;;;;4.70;1.90;;;;;;;;;;5034072;28;20170;-82
2023/05/17 11:05:42;;;;;;;5.23;1.67;;;;;;;;;;5033779;28;20548;-83
2023/05/17 11:08:16;;;;;;;3.77;1.87;;;;;;;;;;5031809;28;20709;-83
2023/05/17 11:11:02;;;;;;;5.30;2.10;;;;;;;;;;5042648;28;20698;-82
2023/05/17 11:13:29;;;;;;;4.43;1.90;;;;;;;;;;5038291;28;20181;-82
2023/05/17 11:16:05;;;;;;;4.43;1.90;;;;;;;;;;5033891;28;20177;-83
2023/05/17 11:18:47;;;;;;;6.13;2.00;;;;;;;;;;5033842;28;20201;-82
2023/05/17 11:21:16;;;;;;;4.70;1.87;;;;;;;;;;5033509;28;20173;-82
2023/05/17 11:23:46;;;;;;;2.80;1.97;;;;;;;;;;5051918;28;20169;-83
2023/05/17 11:26:17;;;;;;;4.37;1.70;;;;;;;;;;5048137;28;20180;-82
2023/05/17 11:28:43;;;;;;;5.80;1.60;;;;;;;;;;5033795;28;20651;-82
2023/05/17 11:31:10;;;;;;;5.23;2.00;;;;;;;;;;5033486;28;20173;-82
2023/05/17 11:33:43;;;;;;;4.03;1.80;;;;;;;;;;5033709;28;20181;-82
2023/05/17 11:36:18;;;;;;;3.90;1.90;;;;;;;;;;5051804;28;20181;-83
2023/05/17 11:38:44;;;;;;;5.60;2.10;;;;;;;;;;5034250;28;20296;-83
2023/05/17 11:41:17;;;;;;;5.67;1.90;;;;;;;;;;5054897;28;20691;-83
2023/05/17 11:43:47;;;;;;;4.83;1.73;;;;;;;;;;5037772;28;20178;-82
2023/05/17 11:46:21;;;;;;;1.77;1.50;;;;;;;;;;5041486;28;20729;-81
2023/05/17 11:48:47;;;;;;;4.07;1.80;;;;;;;;;;5048722;28;20193;-81
2023/05/17 11:51:16;;;;;;;5.17;1.63;;;;;;;;;;5058227;28;20177;-82
2023/05/17 11:53:43;;;;;;;5.57;2.27;;;;;;;;;;5055596;28;20204;-81
2023/05/17 11:56:10;;;;;;;4.73;1.80;;;;;;;;;;5055225;28;20178;-82
2023/05/17 11:58:36;;;;;;;4.83;1.80;;;;;;;;;;5101980;22;20301;-81
2023/05/17 12:01:03;;;;;;;3.30;1.87;;;;;;;;;;5058828;28;20181;-81
2023/05/17 12:03:30;;;;;;;3.33;1.80;;;;;;;;;;5062334;28;20174;-81
2023/05/17 12:06:13;;;;;;;3.57;2.10;;;;;;;;;;5048313;28;20336;-80
2023/05/17 12:08:39;;;;;;;4.53;1.93;;;;;;;;;;5060932;28;20525;-80
2023/05/17 12:11:06;;;;;;;4.23;1.70;;;;;;;;;;5042003;28;20181;-82
2023/05/17 12:13:33;;;;;;;5.03;1.97;;;;;;;;;;5059899;28;20249;-84
2023/05/17 12:16:00;;;;;;;4.67;1.87;;;;;;;;;;5058705;28;20616;-84
2023/05/17 12:18:35;;;;;;;4.17;1.60;;;;;;;;;;5059337;28;20247;-83
2023/05/17 12:21:01;;;;;;;6.93;1.80;;;;;;;;;;5059219;28;20188;-85
2023/05/17 12:23:38;;;;;;;3.13;1.50;;;;;;;;;;5060073;28;20174;-84
2023/05/17 12:26:04;;;;;;;3.47;1.63;;;;;;;;;;5059936;28;20269;-84
2023/05/17 12:28:30;;;;;;;4.67;1.83;;;;;;;;;;5041226;28;20598;-84
2023/05/17 12:30:57;;;;;;;5.93;1.80;;;;;;;;;;5060668;28;20193;-85
2023/05/17 12:33:24;;;;;;;3.67;1.80;;;;;;;;;;5060339;28;20161;-84
2023/05/17 12:35:50;;;;;;;5.47;1.70;;;;;;;;;;5060407;28;20731;-84
2023/05/17 12:38:17;;;;;;;6.67;2.10;;;;;;;;;;5059436;28;20217;-84
2023/05/17 12:40:43;;;;;;;7.07;2.00;;;;;;;;;;5040807;28;20232;-83
2023/05/17 12:43:09;;;;;;;6.07;1.93;;;;;;;;;;5041423;28;20200;-84
2023/05/17 12:45:35;;;;;;;5.23;2.23;;;;;;;;;;5059654;28;20170;-83
2023/05/17 12:48:01;;;;;;;5.17;2.10;;;;;;;;;;5057003;28;20599;-83
2023/05/17 12:50:31;;;;;;;4.63;1.83;;;;;;;;;;5037622;28;20182;-81
2023/05/17 12:52:58;;;;;;;5.37;1.80;;;;;;;;;;5038010;28;20174;-82
2023/05/17 12:55:24;;;;;;;4.53;2.00;;;;;;;;;;5038056;28;20177;-83
2023/05/17 12:57:50;;;;;;;5.20;2.00;;;;;;;;;;5056189;28;20217;-82
2023/05/17 13:00:16;;;;;;;3.87;1.90;;;;;;;;;;5038022;28;20271;-82
2023/05/17 13:02:43;;;;;;;5.33;2.23;;;;;;;;;;5056009;28;20169;-82
2023/05/17 13:05:17;;;;;;;4.10;1.70;;;;;;;;;;5056718;28;20194;-82
2023/05/17 13:07:43;;;;;;;4.53;2.03;;;;;;;;;;5056199;28;20679;-83
2023/05/17 13:10:19;;;;;;;4.67;2.03;;;;;;;;;;5056177;28;20177;-83
2023/05/17 13:12:53;;;;;;;2.87;1.80;;;;;;;;;;5056579;28;20223;-83
2023/05/17 13:15:20;;;;;;;3.57;1.80;;;;;;;;;;5055986;28;20227;-83
2023/05/17 13:17:48;;;;;;;5.80;2.00;;;;;;;;;;5055929;28;20198;-82
2023/05/17 13:20:15;;;;;;;3.60;1.77;;;;;;;;;;5056661;28;20205;-82
2023/05/17 13:22:47;;;;;;;5.60;1.97;;;;;;;;;;5055890;28;20178;-83
2023/05/17 13:25:13;;;;;;;4.30;1.87;;;;;;;;;;5057031;28;20185;-83
2023/05/17 13:27:45;;;;;;;4.17;1.67;;;;;;;;;;5039195;28;20197;-83
2023/05/17 13:30:12;;;;;;;5.73;2.00;;;;;;;;;;5038565;28;20193;-83
2023/05/17 13:32:38;;;;;;;4.00;1.70;;;;;;;;;;5039144;28;20276;-83
2023/05/17 13:35:04;;;;;;;5.27;1.80;;;;;;;;;;5056498;28;20204;-82
2023/05/17 13:37:30;;;;;;;4.50;1.73;;;;;;;;;;5055767;28;20727;-82
2023/05/17 13:39:56;;;;;;;3.87;1.90;;;;;;;;;;5037299;28;20583;-82
2023/05/17 13:42:22;;;;;;;5.33;1.90;;;;;;;;;;5037953;28;20312;-82
2023/05/17 13:44:48;;;;;;;3.37;1.60;;;;;;;;;;5038041;28;20184;-82
2023/05/17 13:47:15;;;;;;;3.73;1.60;;;;;;;;;;5038384;28;20201;-85
2023/05/17 13:49:41;;;;;;;3.33;1.70;;;;;;;;;;5037710;28;20188;-83
2023/05/17 13:52:07;;;;;;;6.00;2.20;;;;;;;;;;5055723;28;20228;-83
2023/05/17 13:54:33;;;;;;;5.33;2.00;;;;;;;;;;5037843;28;20190;-83
2023/05/17 13:57:00;;;;;;;5.33;1.70;;;;;;;;;;5037953;28;20228;-82
2023/05/17 13:59:26;;;;;;;2.70;1.60;;;;;;;;;;5037717;28;20247;-83
2023/05/17 14:01:52;;;;;;;5.47;2.00;;;;;;;;;;5054575;28;20227;-83
2023/05/17 14:04:20;;;;;;;3.50;1.70;;;;;;;;;;5037377;28;20200;-83
2023/05/17 14:06:46;;;;;;;5.43;1.80;;;;;;;;;;5055508;28;20170;-83
2023/05/17 14:09:12;;;;;;;4.73;2.10;;;;;;;;;;5037996;28;20176;-83
2023/05/17 14:11:38;;;;;;;3.83;1.70;;;;;;;;;;5055191;28;20659;-83
2023/05/17 14:14:04;;;;;;;4.77;1.80;;;;;;;;;;5038086;28;20180;-83
2023/05/17 14:16:30;;;;;;;5.03;2.00;;;;;;;;;;5038265;28;20636;-83
2023/05/17 14:18:56;;;;;;;5.97;2.00;;;;;;;;;;5056145;28;20210;-83
2023/05/17 14:21:22;;;;;;;6.60;2.00;;;;;;;;;;5037430;28;20196;-84
2023/05/17 14:23:48;;;;;;;5.37;1.80;;;;;;;;;;5038075;28;20194;-84
2023/05/17 14:26:15;;;;;;;4.47;2.10;;;;;;;;;;5038512;28;20181;-83
2023/05/17 14:28:41;;;;;;;4.77;2.00;;;;;;;;;;5056404;28;20193;-84
2023/05/17 14:31:07;;;;;;;7.20;2.20;;;;;;;;;;5055768;28;20209;-83
2023/05/17 14:33:33;;;;;;;4.70;2.00;;;;;;;;;;5038415;28;20180;-83
2023/05/17 14:35:59;;;;;;;5.80;1.93;;;;;;;;;;5056483;28;20174;-83
2023/05/17 14:38:25;;;;;;;4.90;1.90;;;;;;;;;;5057437;28;20194;-83
2023/05/17 14:40:51;;;;;;;3.40;1.60;;;;;;;;;;5038489;28;20220;-82
2023/05/17 14:43:19;;;;;;;4.03;1.77;;;;;;;;;;5054331;28;20640;-83